sensor_id;sensor_type;location;lat;lon;timestamp;temperature;humidity
16301;DHT22;8258;51.020;4.248;2023-04-03T00:00:53;2.40;99.90
16301;DHT22;8258;51.020;4.248;2023-04-03T00:03:22;2.30;99.90
16301;DHT22;8258;51.020;4.248;2023-04-03T00:05:48;2.40;99.90
16301;DHT22;8258;51.020;4.248;2023-04-03T00:08:15;2.30;99.90
16301;DHT22;8258;51.020;4.248;2023-04-03T00:10:43;2.30;99.90
16301;DHT22;8258;51.020;4.248;2023-04-03T00:13:10;2.30;99.90
16301;DHT22;8258;51.020;4.248;2023-04-03T00:15:37;2.40;99.90
16301;DHT22;8258;51.020;4.248;2023-04-03T00:18:05;2.40;99.90
16301;DHT22;8258;51.020;4.248;2023-04-03T00:20:34;2.30;99.90
16301;DHT22;8258;51.020;4.248;2023-04-03T00:23:01;2.30;99.90
16301;DHT22;8258;51.020;4.248;2023-04-03T00:25:29;2.30;99.90
16301;DHT22;8258;51.020;4.248;2023-04-03T00:27:56;2.30;99.90
16301;DHT22;8258;51.020;4.248;2023-04-03T00:30:24;2.30;99.90
16301;DHT22;8258;51.020;4.248;2023-04-03T00:32:51;2.20;99.90
16301;DHT22;8258;51.020;4.248;2023-04-03T00:35:20;2.30;99.90
16301;DHT22;8258;51.020;4.248;2023-04-03T00:37:51;2.20;99.90
16301;DHT22;8258;51.020;4.248;2023-04-03T00:40:19;2.30;99.90
16301;DHT22;8258;51.020;4.248;2023-04-03T00:42:48;2.40;99.90
16301;DHT22;8258;51.020;4.248;2023-04-03T00:45:34;2.40;99.90
16301;DHT22;8258;51.020;4.248;2023-04-03T00:48:03;2.40;99.90
16301;DHT22;8258;51.020;4.248;2023-04-03T00:50:31;2.40;99.90
16301;DHT22;8258;51.020;4.248;2023-04-03T00:53:00;2.40;99.90
16301;DHT22;8258;51.020;4.248;2023-04-03T00:55:27;2.30;99.90
16301;DHT22;8258;51.020;4.248;2023-04-03T00:57:56;2.40;99.90
16301;DHT22;8258;51.020;4.248;2023-04-03T01:00:24;2.40;99.90
16301;DHT22;8258;51.020;4.248;2023-04-03T01:02:52;2.40;99.90
16301;DHT22;8258;51.020;4.248;2023-04-03T01:05:20;2.40;99.90
16301;DHT22;8258;51.020;4.248;2023-04-03T01:07:49;2.40;99.90
16301;DHT22;8258;51.020;4.248;2023-04-03T01:10:18;2.30;99.90
16301;DHT22;8258;51.020;4.248;2023-04-03T01:12:47;2.30;99.90
16301;DHT22;8258;51.020;4.248;2023-04-03T01:15:16;2.30;99.90
16301;DHT22;8258;51.020;4.248;2023-04-03T01:17:44;2.30;99.90
16301;DHT22;8258;51.020;4.248;2023-04-03T01:23:27;2.20;99.90
16301;DHT22;8258;51.020;4.248;2023-04-03T01:25:58;2.10;99.90
16301;DHT22;8258;51.020;4.248;2023-04-03T01:28:27;2.10;99.90
16301;DHT22;8258;51.020;4.248;2023-04-03T01:31:00;2.10;99.90
16301;DHT22;8258;51.020;4.248;2023-04-03T01:33:30;2.00;99.90
16301;DHT22;8258;51.020;4.248;2023-04-03T01:35:57;2.00;99.90
16301;DHT22;8258;51.020;4.248;2023-04-03T01:38:24;2.00;99.90
16301;DHT22;8258;51.020;4.248;2023-04-03T01:40:51;2.00;99.90
16301;DHT22;8258;51.020;4.248;2023-04-03T01:43:18;2.00;99.90
16301;DHT22;8258;51.020;4.248;2023-04-03T01:45:45;2.00;99.90
16301;DHT22;8258;51.020;4.248;2023-04-03T01:48:15;2.00;99.90
16301;DHT22;8258;51.020;4.248;2023-04-03T01:50:43;2.00;99.90
16301;DHT22;8258;51.020;4.248;2023-04-03T01:53:10;1.90;99.90
16301;DHT22;8258;51.020;4.248;2023-04-03T01:55:37;1.90;99.90
16301;DHT22;8258;51.020;4.248;2023-04-03T01:58:04;2.00;99.90
16301;DHT22;8258;51.020;4.248;2023-04-03T02:00:31;2.00;99.90
16301;DHT22;8258;51.020;4.248;2023-04-03T02:02:58;1.90;99.90
16301;DHT22;8258;51.020;4.248;2023-04-03T02:05:25;1.90;99.90
16301;DHT22;8258;51.020;4.248;2023-04-03T02:07:53;1.90;99.90
16301;DHT22;8258;51.020;4.248;2023-04-03T02:10:20;1.90;99.90
16301;DHT22;8258;51.020;4.248;2023-04-03T02:12:47;1.80;99.90
16301;DHT22;8258;51.020;4.248;2023-04-03T02:15:14;1.90;99.90
16301;DHT22;8258;51.020;4.248;2023-04-03T02:17:41;1.90;99.90
16301;DHT22;8258;51.020;4.248;2023-04-03T02:20:08;1.90;99.90
16301;DHT22;8258;51.020;4.248;2023-04-03T02:22:35;1.90;99.90
16301;DHT22;8258;51.020;4.248;2023-04-03T02:25:04;1.90;99.90
16301;DHT22;8258;51.020;4.248;2023-04-03T02:27:31;1.90;99.90
16301;DHT22;8258;51.020;4.248;2023-04-03T02:29:58;1.90;99.90
16301;DHT22;8258;51.020;4.248;2023-04-03T02:32:25;2.00;99.90
16301;DHT22;8258;51.020;4.248;2023-04-03T02:34:52;1.90;99.90
16301;DHT22;8258;51.020;4.248;2023-04-03T02:37:19;1.90;99.90
16301;DHT22;8258;51.020;4.248;2023-04-03T02:39:46;1.90;99.90
16301;DHT22;8258;51.020;4.248;2023-04-03T02:42:14;1.90;99.90
16301;DHT22;8258;51.020;4.248;2023-04-03T02:44:41;1.90;99.90
16301;DHT22;8258;51.020;4.248;2023-04-03T02:47:08;1.80;99.90
16301;DHT22;8258;51.020;4.248;2023-04-03T02:49:35;1.80;99.90
16301;DHT22;8258;51.020;4.248;2023-04-03T02:52:02;1.80;99.90
16301;DHT22;8258;51.020;4.248;2023-04-03T02:54:29;1.70;99.90
16301;DHT22;8258;51.020;4.248;2023-04-03T02:56:56;1.70;99.90
16301;DHT22;8258;51.020;4.248;2023-04-03T02:59:25;1.70;99.90
16301;DHT22;8258;51.020;4.248;2023-04-03T03:01:52;1.70;99.90
16301;DHT22;8258;51.020;4.248;2023-04-03T03:04:19;1.60;99.90
16301;DHT22;8258;51.020;4.248;2023-04-03T03:06:46;1.50;99.90
16301;DHT22;8258;51.020;4.248;2023-04-03T03:09:14;1.60;99.90
16301;DHT22;8258;51.020;4.248;2023-04-03T03:11:41;1.60;99.90
16301;DHT22;8258;51.020;4.248;2023-04-03T03:14:08;1.60;99.90
16301;DHT22;8258;51.020;4.248;2023-04-03T03:16:36;1.60;99.90
16301;DHT22;8258;51.020;4.248;2023-04-03T03:19:03;1.50;99.90
16301;DHT22;8258;51.020;4.248;2023-04-03T03:21:30;1.50;99.90
16301;DHT22;8258;51.020;4.248;2023-04-03T03:23:57;1.50;99.90
16301;DHT22;8258;51.020;4.248;2023-04-03T03:26:24;1.50;99.90
16301;DHT22;8258;51.020;4.248;2023-04-03T03:28:51;1.50;99.90
16301;DHT22;8258;51.020;4.248;2023-04-03T03:31:18;1.50;99.90
16301;DHT22;8258;51.020;4.248;2023-04-03T03:33:47;1.50;99.90
16301;DHT22;8258;51.020;4.248;2023-04-03T03:36:14;1.50;99.90
16301;DHT22;8258;51.020;4.248;2023-04-03T03:38:41;1.50;99.90
16301;DHT22;8258;51.020;4.248;2023-04-03T03:41:08;1.50;99.90
16301;DHT22;8258;51.020;4.248;2023-04-03T03:43:35;1.40;99.90
16301;DHT22;8258;51.020;4.248;2023-04-03T03:46:02;1.40;99.90
16301;DHT22;8258;51.020;4.248;2023-04-03T03:48:29;1.40;99.90
16301;DHT22;8258;51.020;4.248;2023-04-03T03:50:57;1.30;99.90
16301;DHT22;8258;51.020;4.248;2023-04-03T03:53:24;1.30;99.90
16301;DHT22;8258;51.020;4.248;2023-04-03T03:55:51;1.30;99.90
16301;DHT22;8258;51.020;4.248;2023-04-03T03:58:18;1.20;99.90
16301;DHT22;8258;51.020;4.248;2023-04-03T04:00:45;1.30;99.90
16301;DHT22;8258;51.020;4.248;2023-04-03T04:03:12;1.20;99.90
16301;DHT22;8258;51.020;4.248;2023-04-03T04:05:39;1.20;99.90
16301;DHT22;8258;51.020;4.248;2023-04-03T04:08:07;1.10;99.90
16301;DHT22;8258;51.020;4.248;2023-04-03T04:10:34;1.10;99.90
16301;DHT22;8258;51.020;4.248;2023-04-03T04:13:02;1.10;99.90
16301;DHT22;8258;51.020;4.248;2023-04-03T04:15:29;1.10;99.90
16301;DHT22;8258;51.020;4.248;2023-04-03T04:17:56;1.10;99.90
16301;DHT22;8258;51.020;4.248;2023-04-03T04:20:23;1.10;99.90
16301;DHT22;8258;51.020;4.248;2023-04-03T04:22:50;1.00;99.90
16301;DHT22;8258;51.020;4.248;2023-04-03T04:25:18;1.00;99.90
16301;DHT22;8258;51.020;4.248;2023-04-03T04:27:45;0.90;99.90
16301;DHT22;8258;51.020;4.248;2023-04-03T04:30:13;0.90;99.90
16301;DHT22;8258;51.020;4.248;2023-04-03T04:32:40;0.90;99.90
16301;DHT22;8258;51.020;4.248;2023-04-03T04:35:07;0.90;99.90
16301;DHT22;8258;51.020;4.248;2023-04-03T04:37:35;0.90;99.90
16301;DHT22;8258;51.020;4.248;2023-04-03T04:40:02;0.80;99.90
16301;DHT22;8258;51.020;4.248;2023-04-03T04:42:31;0.80;99.90
16301;DHT22;8258;51.020;4.248;2023-04-03T04:44:57;0.80;99.90
16301;DHT22;8258;51.020;4.248;2023-04-03T04:47:24;0.80;99.90
16301;DHT22;8258;51.020;4.248;2023-04-03T04:49:51;0.80;99.90
16301;DHT22;8258;51.020;4.248;2023-04-03T04:52:18;0.80;99.90
16301;DHT22;8258;51.020;4.248;2023-04-03T04:54:45;0.80;99.90
16301;DHT22;8258;51.020;4.248;2023-04-03T04:57:12;0.80;99.90
16301;DHT22;8258;51.020;4.248;2023-04-03T04:59:40;0.70;99.90
16301;DHT22;8258;51.020;4.248;2023-04-03T05:02:07;0.70;99.90
16301;DHT22;8258;51.020;4.248;2023-04-03T05:04:34;0.70;99.90
16301;DHT22;8258;51.020;4.248;2023-04-03T05:07:01;0.70;99.90
16301;DHT22;8258;51.020;4.248;2023-04-03T05:09:28;0.70;99.90
16301;DHT22;8258;51.020;4.248;2023-04-03T05:11:55;0.70;99.90
16301;DHT22;8258;51.020;4.248;2023-04-03T05:14:22;0.80;99.90
16301;DHT22;8258;51.020;4.248;2023-04-03T05:16:50;0.80;99.90
16301;DHT22;8258;51.020;4.248;2023-04-03T05:19:19;0.80;99.90
16301;DHT22;8258;51.020;4.248;2023-04-03T05:21:46;0.90;99.90
16301;DHT22;8258;51.020;4.248;2023-04-03T05:24:14;0.90;99.90
16301;DHT22;8258;51.020;4.248;2023-04-03T05:26:41;0.90;99.90
16301;DHT22;8258;51.020;4.248;2023-04-03T05:29:09;0.90;99.90
16301;DHT22;8258;51.020;4.248;2023-04-03T05:31:36;0.90;99.90
16301;DHT22;8258;51.020;4.248;2023-04-03T05:34:04;1.00;99.90
16301;DHT22;8258;51.020;4.248;2023-04-03T05:36:31;0.90;99.90
16301;DHT22;8258;51.020;4.248;2023-04-03T05:38:59;1.00;99.90
16301;DHT22;8258;51.020;4.248;2023-04-03T05:41:26;1.00;99.90
16301;DHT22;8258;51.020;4.248;2023-04-03T05:43:53;0.90;99.90
16301;DHT22;8258;51.020;4.248;2023-04-03T05:46:20;0.90;99.90
16301;DHT22;8258;51.020;4.248;2023-04-03T05:48:47;0.90;99.90
16301;DHT22;8258;51.020;4.248;2023-04-03T05:51:17;0.90;99.90
16301;DHT22;8258;51.020;4.248;2023-04-03T05:53:45;1.10;99.90
16301;DHT22;8258;51.020;4.248;2023-04-03T05:56:13;1.10;99.90
16301;DHT22;8258;51.020;4.248;2023-04-03T05:58:40;1.20;99.90
16301;DHT22;8258;51.020;4.248;2023-04-03T06:01:07;1.30;99.90
16301;DHT22;8258;51.020;4.248;2023-04-03T06:03:34;1.30;99.90
16301;DHT22;8258;51.020;4.248;2023-04-03T06:06:04;1.30;99.90
16301;DHT22;8258;51.020;4.248;2023-04-03T06:08:32;1.30;99.90
16301;DHT22;8258;51.020;4.248;2023-04-03T06:11:00;1.40;99.90
16301;DHT22;8258;51.020;4.248;2023-04-03T06:13:27;1.50;99.90
16301;DHT22;8258;51.020;4.248;2023-04-03T06:15:55;1.60;99.90
16301;DHT22;8258;51.020;4.248;2023-04-03T06:18:22;1.60;99.90
16301;DHT22;8258;51.020;4.248;2023-04-03T06:20:49;2.00;99.90
16301;DHT22;8258;51.020;4.248;2023-04-03T06:23:16;3.20;99.90
16301;DHT22;8258;51.020;4.248;2023-04-03T06:25:44;4.40;99.90
16301;DHT22;8258;51.020;4.248;2023-04-03T06:28:12;5.60;99.90
16301;DHT22;8258;51.020;4.248;2023-04-03T06:30:39;6.70;99.90
16301;DHT22;8258;51.020;4.248;2023-04-03T06:33:06;7.50;99.90
16301;DHT22;8258;51.020;4.248;2023-04-03T06:35:33;7.90;99.90
16301;DHT22;8258;51.020;4.248;2023-04-03T06:38:00;8.20;99.90
16301;DHT22;8258;51.020;4.248;2023-04-03T06:40:29;8.20;99.90
16301;DHT22;8258;51.020;4.248;2023-04-03T06:42:58;8.30;99.90
16301;DHT22;8258;51.020;4.248;2023-04-03T06:45:25;8.50;99.90
16301;DHT22;8258;51.020;4.248;2023-04-03T06:47:52;8.40;99.90
16301;DHT22;8258;51.020;4.248;2023-04-03T06:50:19;8.60;99.90
16301;DHT22;8258;51.020;4.248;2023-04-03T06:52:46;8.80;99.90
16301;DHT22;8258;51.020;4.248;2023-04-03T06:55:13;8.80;99.90
16301;DHT22;8258;51.020;4.248;2023-04-03T06:57:40;9.20;99.90
16301;DHT22;8258;51.020;4.248;2023-04-03T07:00:10;9.50;99.90
16301;DHT22;8258;51.020;4.248;2023-04-03T07:02:37;9.60;99.90
16301;DHT22;8258;51.020;4.248;2023-04-03T07:05:05;10.10;99.90
16301;DHT22;8258;51.020;4.248;2023-04-03T07:07:32;10.60;99.90
16301;DHT22;8258;51.020;4.248;2023-04-03T07:10:00;10.30;99.90
16301;DHT22;8258;51.020;4.248;2023-04-03T07:12:27;11.00;99.90
16301;DHT22;8258;51.020;4.248;2023-04-03T07:14:54;11.60;99.90
16301;DHT22;8258;51.020;4.248;2023-04-03T07:17:22;11.30;99.90
16301;DHT22;8258;51.020;4.248;2023-04-03T07:19:49;11.20;99.90
16301;DHT22;8258;51.020;4.248;2023-04-03T07:22:16;11.20;99.90
16301;DHT22;8258;51.020;4.248;2023-04-03T07:24:43;11.10;99.90
16301;DHT22;8258;51.020;4.248;2023-04-03T07:27:10;11.00;99.90
16301;DHT22;8258;51.020;4.248;2023-04-03T07:29:38;10.90;99.90
16301;DHT22;8258;51.020;4.248;2023-04-03T07:32:05;11.20;99.90
16301;DHT22;8258;51.020;4.248;2023-04-03T07:34:34;11.20;99.90
16301;DHT22;8258;51.020;4.248;2023-04-03T07:37:01;11.80;99.90
16301;DHT22;8258;51.020;4.248;2023-04-03T07:39:28;12.40;99.90
16301;DHT22;8258;51.020;4.248;2023-04-03T07:41:55;13.00;99.90
16301;DHT22;8258;51.020;4.248;2023-04-03T07:44:22;12.90;99.90
16301;DHT22;8258;51.020;4.248;2023-04-03T07:46:49;12.80;99.90
16301;DHT22;8258;51.020;4.248;2023-04-03T07:49:16;12.50;99.90
16301;DHT22;8258;51.020;4.248;2023-04-03T07:51:46;12.20;99.90
16301;DHT22;8258;51.020;4.248;2023-04-03T07:54:14;12.40;99.90
16301;DHT22;8258;51.020;4.248;2023-04-03T07:56:41;12.50;99.90
16301;DHT22;8258;51.020;4.248;2023-04-03T07:59:09;13.00;99.90
16301;DHT22;8258;51.020;4.248;2023-04-03T08:01:36;12.40;99.90
16301;DHT22;8258;51.020;4.248;2023-04-03T08:04:03;13.00;99.90
16301;DHT22;8258;51.020;4.248;2023-04-03T08:06:31;13.00;99.90
16301;DHT22;8258;51.020;4.248;2023-04-03T08:09:02;13.10;99.90
16301;DHT22;8258;51.020;4.248;2023-04-03T08:11:30;13.20;99.90
16301;DHT22;8258;51.020;4.248;2023-04-03T08:13:57;13.30;99.90
16301;DHT22;8258;51.020;4.248;2023-04-03T08:16:25;13.40;99.90
16301;DHT22;8258;51.020;4.248;2023-04-03T08:18:53;12.90;99.90
16301;DHT22;8258;51.020;4.248;2023-04-03T08:21:21;13.50;99.90
16301;DHT22;8258;51.020;4.248;2023-04-03T08:23:49;13.90;99.90
16301;DHT22;8258;51.020;4.248;2023-04-03T08:26:19;14.10;99.90
16301;DHT22;8258;51.020;4.248;2023-04-03T08:28:48;14.40;99.30
16301;DHT22;8258;51.020;4.248;2023-04-03T08:31:17;14.20;99.70
16301;DHT22;8258;51.020;4.248;2023-04-03T08:33:45;14.40;98.40
16301;DHT22;8258;51.020;4.248;2023-04-03T08:36:19;14.90;97.40
16301;DHT22;8258;51.020;4.248;2023-04-03T08:38:46;14.00;98.60
16301;DHT22;8258;51.020;4.248;2023-04-03T08:41:19;14.00;97.70
16301;DHT22;8258;51.020;4.248;2023-04-03T08:44:00;13.70;97.20
16301;DHT22;8258;51.020;4.248;2023-04-03T08:46:42;13.70;96.80
16301;DHT22;8258;51.020;4.248;2023-04-03T08:49:18;13.10;97.80
16301;DHT22;8258;51.020;4.248;2023-04-03T08:51:49;13.30;97.80
16301;DHT22;8258;51.020;4.248;2023-04-03T08:54:26;13.40;98.90
16301;DHT22;8258;51.020;4.248;2023-04-03T08:56:55;13.40;97.10
16301;DHT22;8258;51.020;4.248;2023-04-03T08:59:28;13.60;97.90
16301;DHT22;8258;51.020;4.248;2023-04-03T09:01:58;13.20;97.50
16301;DHT22;8258;51.020;4.248;2023-04-03T09:04:28;13.50;99.60
16301;DHT22;8258;51.020;4.248;2023-04-03T09:07:02;13.50;96.90
16301;DHT22;8258;51.020;4.248;2023-04-03T09:09:33;13.90;97.40
16301;DHT22;8258;51.020;4.248;2023-04-03T09:12:15;15.20;98.10
16301;DHT22;8258;51.020;4.248;2023-04-03T09:14:49;15.70;93.50
16301;DHT22;8258;51.020;4.248;2023-04-03T09:17:24;15.80;91.80
16301;DHT22;8258;51.020;4.248;2023-04-03T09:19:58;15.60;91.60
16301;DHT22;8258;51.020;4.248;2023-04-03T09:22:32;15.70;91.00
16301;DHT22;8258;51.020;4.248;2023-04-03T09:25:05;15.60;91.50
16301;DHT22;8258;51.020;4.248;2023-04-03T09:27:36;15.80;90.10
16301;DHT22;8258;51.020;4.248;2023-04-03T09:30:03;15.50;87.20
16301;DHT22;8258;51.020;4.248;2023-04-03T09:32:33;15.20;85.80
16301;DHT22;8258;51.020;4.248;2023-04-03T09:35:04;14.20;91.10
16301;DHT22;8258;51.020;4.248;2023-04-03T09:37:40;14.50;91.00
16301;DHT22;8258;51.020;4.248;2023-04-03T09:40:30;15.30;88.80
16301;DHT22;8258;51.020;4.248;2023-04-03T09:43:16;15.20;88.60
16301;DHT22;8258;51.020;4.248;2023-04-03T09:45:46;14.80;84.10
16301;DHT22;8258;51.020;4.248;2023-04-03T09:48:16;14.30;89.00
16301;DHT22;8258;51.020;4.248;2023-04-03T09:50:59;15.10;91.20
16301;DHT22;8258;51.020;4.248;2023-04-03T09:53:30;15.80;88.20
16301;DHT22;8258;51.020;4.248;2023-04-03T09:55:57;16.90;83.10
16301;DHT22;8258;51.020;4.248;2023-04-03T09:58:27;16.30;84.40
16301;DHT22;8258;51.020;4.248;2023-04-03T10:00:57;15.90;78.50
16301;DHT22;8258;51.020;4.248;2023-04-03T10:03:28;15.50;84.60
16301;DHT22;8258;51.020;4.248;2023-04-03T10:05:56;16.60;81.90
16301;DHT22;8258;51.020;4.248;2023-04-03T10:08:29;16.80;78.50
16301;DHT22;8258;51.020;4.248;2023-04-03T10:11:14;17.20;75.90
16301;DHT22;8258;51.020;4.248;2023-04-03T10:13:54;16.70;75.40
16301;DHT22;8258;51.020;4.248;2023-04-03T10:16:26;17.00;76.60
16301;DHT22;8258;51.020;4.248;2023-04-03T10:19:04;17.40;74.30
16301;DHT22;8258;51.020;4.248;2023-04-03T10:21:40;17.70;70.70
16301;DHT22;8258;51.020;4.248;2023-04-03T10:24:12;17.60;71.50
16301;DHT22;8258;51.020;4.248;2023-04-03T10:26:47;18.30;68.50
16301;DHT22;8258;51.020;4.248;2023-04-03T10:29:26;18.40;65.40
16301;DHT22;8258;51.020;4.248;2023-04-03T10:32:02;18.40;61.40
16301;DHT22;8258;51.020;4.248;2023-04-03T10:34:38;17.40;69.20
16301;DHT22;8258;51.020;4.248;2023-04-03T10:37:13;18.10;65.20
16301;DHT22;8258;51.020;4.248;2023-04-03T10:39:49;18.20;65.00
16301;DHT22;8258;51.020;4.248;2023-04-03T10:42:23;18.40;57.80
16301;DHT22;8258;51.020;4.248;2023-04-03T10:45:16;17.30;55.90
16301;DHT22;8258;51.020;4.248;2023-04-03T10:47:54;18.00;59.10
16301;DHT22;8258;51.020;4.248;2023-04-03T10:50:31;18.00;58.90
16301;DHT22;8258;51.020;4.248;2023-04-03T10:53:09;17.80;60.00
16301;DHT22;8258;51.020;4.248;2023-04-03T10:55:42;18.00;60.30
16301;DHT22;8258;51.020;4.248;2023-04-03T10:58:18;18.30;57.20
16301;DHT22;8258;51.020;4.248;2023-04-03T11:00:50;18.10;58.20
16301;DHT22;8258;51.020;4.248;2023-04-03T11:03:27;18.60;57.50
16301;DHT22;8258;51.020;4.248;2023-04-03T11:05:57;18.60;58.50
16301;DHT22;8258;51.020;4.248;2023-04-03T11:08:28;19.00;52.90
16301;DHT22;8258;51.020;4.248;2023-04-03T11:10:59;18.60;50.10
16301;DHT22;8258;51.020;4.248;2023-04-03T11:13:32;18.40;51.90
16301;DHT22;8258;51.020;4.248;2023-04-03T11:16:04;17.60;50.30
16301;DHT22;8258;51.020;4.248;2023-04-03T11:18:37;17.50;53.70
16301;DHT22;8258;51.020;4.248;2023-04-03T11:21:12;16.10;53.10
16301;DHT22;8258;51.020;4.248;2023-04-03T11:23:41;16.60;52.90
16301;DHT22;8258;51.020;4.248;2023-04-03T11:26:11;17.30;52.80
16301;DHT22;8258;51.020;4.248;2023-04-03T11:28:40;18.30;52.80
16301;DHT22;8258;51.020;4.248;2023-04-03T11:31:16;19.10;49.50
16301;DHT22;8258;51.020;4.248;2023-04-03T11:33:54;19.50;46.20
16301;DHT22;8258;51.020;4.248;2023-04-03T11:36:24;19.30;45.40
16301;DHT22;8258;51.020;4.248;2023-04-03T11:38:55;19.50;47.30
16301;DHT22;8258;51.020;4.248;2023-04-03T11:41:26;19.50;45.80
16301;DHT22;8258;51.020;4.248;2023-04-03T11:43:59;19.40;48.20
16301;DHT22;8258;51.020;4.248;2023-04-03T11:46:58;17.80;44.60
16301;DHT22;8258;51.020;4.248;2023-04-03T11:52:58;18.30;44.80
16301;DHT22;8258;51.020;4.248;2023-04-03T11:55:53;19.10;45.70
16301;DHT22;8258;51.020;4.248;2023-04-03T11:58:22;19.90;41.40
16301;DHT22;8258;51.020;4.248;2023-04-03T12:00:54;19.80;46.10
16301;DHT22;8258;51.020;4.248;2023-04-03T12:10:02;20.30;37.10
16301;DHT22;8258;51.020;4.248;2023-04-03T12:12:56;19.70;36.40
16301;DHT22;8258;51.020;4.248;2023-04-03T12:15:52;19.60;38.80
16301;DHT22;8258;51.020;4.248;2023-04-03T12:18:43;19.80;36.50
16301;DHT22;8258;51.020;4.248;2023-04-03T12:21:12;18.60;39.10
16301;DHT22;8258;51.020;4.248;2023-04-03T12:23:59;19.60;39.30
16301;DHT22;8258;51.020;4.248;2023-04-03T12:26:32;20.10;36.90
16301;DHT22;8258;51.020;4.248;2023-04-03T12:29:10;19.80;34.40
16301;DHT22;8258;51.020;4.248;2023-04-03T12:31:48;19.10;35.30
16301;DHT22;8258;51.020;4.248;2023-04-03T12:37:39;20.30;38.00
16301;DHT22;8258;51.020;4.248;2023-04-03T12:40:16;20.80;34.30
16301;DHT22;8258;51.020;4.248;2023-04-03T12:43:13;21.30;33.00
16301;DHT22;8258;51.020;4.248;2023-04-03T12:45:47;21.00;30.60
16301;DHT22;8258;51.020;4.248;2023-04-03T12:48:18;21.10;32.30
16301;DHT22;8258;51.020;4.248;2023-04-03T12:50:47;20.80;31.10
16301;DHT22;8258;51.020;4.248;2023-04-03T12:53:18;21.00;29.20
16301;DHT22;8258;51.020;4.248;2023-04-03T12:55:46;20.80;30.80
16301;DHT22;8258;51.020;4.248;2023-04-03T12:58:16;20.60;29.40
16301;DHT22;8258;51.020;4.248;2023-04-03T13:00:43;21.10;31.70
16301;DHT22;8258;51.020;4.248;2023-04-03T13:03:22;21.90;29.70
16301;DHT22;8258;51.020;4.248;2023-04-03T13:05:53;22.10;29.60
16301;DHT22;8258;51.020;4.248;2023-04-03T13:08:20;21.50;27.30
16301;DHT22;8258;51.020;4.248;2023-04-03T13:10:52;21.20;28.30
16301;DHT22;8258;51.020;4.248;2023-04-03T13:13:21;21.80;30.30
16301;DHT22;8258;51.020;4.248;2023-04-03T13:15:49;21.70;28.80
16301;DHT22;8258;51.020;4.248;2023-04-03T13:18:28;21.00;26.80
16301;DHT22;8258;51.020;4.248;2023-04-03T13:20:59;20.80;27.60
16301;DHT22;8258;51.020;4.248;2023-04-03T13:23:27;20.60;29.10
16301;DHT22;8258;51.020;4.248;2023-04-03T13:25:55;21.40;29.40
16301;DHT22;8258;51.020;4.248;2023-04-03T13:28:27;21.60;27.60
16301;DHT22;8258;51.020;4.248;2023-04-03T13:30:59;21.00;28.30
16301;DHT22;8258;51.020;4.248;2023-04-03T13:33:29;20.40;25.50
16301;DHT22;8258;51.020;4.248;2023-04-03T13:36:17;20.90;29.30
16301;DHT22;8258;51.020;4.248;2023-04-03T13:38:45;20.90;27.10
16301;DHT22;8258;51.020;4.248;2023-04-03T13:41:25;21.00;28.80
16301;DHT22;8258;51.020;4.248;2023-04-03T13:43:54;21.10;28.20
16301;DHT22;8258;51.020;4.248;2023-04-03T13:46:27;21.30;29.40
16301;DHT22;8258;51.020;4.248;2023-04-03T13:48:56;20.90;27.10
16301;DHT22;8258;51.020;4.248;2023-04-03T13:51:25;21.20;28.30
16301;DHT22;8258;51.020;4.248;2023-04-03T13:53:55;21.30;27.90
16301;DHT22;8258;51.020;4.248;2023-04-03T13:56:27;20.60;28.00
16301;DHT22;8258;51.020;4.248;2023-04-03T13:59:05;20.50;27.20
16301;DHT22;8258;51.020;4.248;2023-04-03T14:01:49;21.00;28.70
16301;DHT22;8258;51.020;4.248;2023-04-03T14:04:19;21.50;27.60
16301;DHT22;8258;51.020;4.248;2023-04-03T14:06:47;21.90;28.40
16301;DHT22;8258;51.020;4.248;2023-04-03T14:09:15;22.20;26.40
16301;DHT22;8258;51.020;4.248;2023-04-03T14:11:43;22.80;28.60
16301;DHT22;8258;51.020;4.248;2023-04-03T14:14:15;23.40;28.20
16301;DHT22;8258;51.020;4.248;2023-04-03T14:16:45;22.40;26.60
16301;DHT22;8258;51.020;4.248;2023-04-03T14:19:20;22.40;28.40
16301;DHT22;8258;51.020;4.248;2023-04-03T14:21:48;22.30;26.20
16301;DHT22;8258;51.020;4.248;2023-04-03T14:24:16;22.30;26.90
16301;DHT22;8258;51.020;4.248;2023-04-03T14:26:45;22.10;27.20
16301;DHT22;8258;51.020;4.248;2023-04-03T14:29:14;22.70;27.40
16301;DHT22;8258;51.020;4.248;2023-04-03T14:31:43;22.70;26.80
16301;DHT22;8258;51.020;4.248;2023-04-03T14:34:11;22.40;26.90
16301;DHT22;8258;51.020;4.248;2023-04-03T14:36:39;22.80;27.20
16301;DHT22;8258;51.020;4.248;2023-04-03T14:39:07;21.30;24.90
16301;DHT22;8258;51.020;4.248;2023-04-03T14:41:35;19.30;25.80
16301;DHT22;8258;51.020;4.248;2023-04-03T14:44:02;20.10;28.80
16301;DHT22;8258;51.020;4.248;2023-04-03T14:46:32;21.20;28.40
16301;DHT22;8258;51.020;4.248;2023-04-03T14:49:00;22.30;26.40
16301;DHT22;8258;51.020;4.248;2023-04-03T14:51:27;22.30;25.40
16301;DHT22;8258;51.020;4.248;2023-04-03T14:53:55;20.50;25.10
16301;DHT22;8258;51.020;4.248;2023-04-03T14:56:23;20.00;27.30
16301;DHT22;8258;51.020;4.248;2023-04-03T14:58:55;20.60;26.50
16301;DHT22;8258;51.020;4.248;2023-04-03T15:01:22;21.60;27.20
16301;DHT22;8258;51.020;4.248;2023-04-03T15:03:51;21.90;26.60
16301;DHT22;8258;51.020;4.248;2023-04-03T15:06:18;22.80;26.90
16301;DHT22;8258;51.020;4.248;2023-04-03T15:08:46;22.60;23.10
16301;DHT22;8258;51.020;4.248;2023-04-03T15:11:14;21.30;25.20
16301;DHT22;8258;51.020;4.248;2023-04-03T15:13:41;20.90;26.70
16301;DHT22;8258;51.020;4.248;2023-04-03T15:16:14;22.50;27.60
16301;DHT22;8258;51.020;4.248;2023-04-03T15:18:45;23.00;26.80
16301;DHT22;8258;51.020;4.248;2023-04-03T15:21:14;22.00;25.10
16301;DHT22;8258;51.020;4.248;2023-04-03T15:23:41;22.00;25.50
16301;DHT22;8258;51.020;4.248;2023-04-03T15:26:08;22.20;25.30
16301;DHT22;8258;51.020;4.248;2023-04-03T15:28:37;21.60;24.30
16301;DHT22;8258;51.020;4.248;2023-04-03T15:31:06;21.00;25.70
16301;DHT22;8258;51.020;4.248;2023-04-03T15:33:35;20.30;25.70
16301;DHT22;8258;51.020;4.248;2023-04-03T15:36:03;20.50;25.60
16301;DHT22;8258;51.020;4.248;2023-04-03T15:38:31;21.00;26.20
16301;DHT22;8258;51.020;4.248;2023-04-03T15:40:58;21.30;25.00
16301;DHT22;8258;51.020;4.248;2023-04-03T15:43:26;20.80;24.30
16301;DHT22;8258;51.020;4.248;2023-04-03T15:45:56;20.60;25.90
16301;DHT22;8258;51.020;4.248;2023-04-03T15:48:24;20.10;26.50
16301;DHT22;8258;51.020;4.248;2023-04-03T15:50:51;19.80;25.60
16301;DHT22;8258;51.020;4.248;2023-04-03T15:53:18;18.70;27.70
16301;DHT22;8258;51.020;4.248;2023-04-03T15:55:47;18.70;27.40
16301;DHT22;8258;51.020;4.248;2023-04-03T15:58:14;17.80;27.50
16301;DHT22;8258;51.020;4.248;2023-04-03T16:00:41;17.50;27.90
16301;DHT22;8258;51.020;4.248;2023-04-03T16:03:10;17.10;29.00
16301;DHT22;8258;51.020;4.248;2023-04-03T16:05:39;16.30;29.90
16301;DHT22;8258;51.020;4.248;2023-04-03T16:08:06;15.60;30.00
16301;DHT22;8258;51.020;4.248;2023-04-03T16:10:34;15.10;30.20
16301;DHT22;8258;51.020;4.248;2023-04-03T16:13:03;15.30;31.20
16301;DHT22;8258;51.020;4.248;2023-04-03T16:15:32;15.40;33.20
16301;DHT22;8258;51.020;4.248;2023-04-03T16:18:00;16.60;30.60
16301;DHT22;8258;51.020;4.248;2023-04-03T16:20:27;16.80;28.80
16301;DHT22;8258;51.020;4.248;2023-04-03T16:22:56;16.60;29.30
16301;DHT22;8258;51.020;4.248;2023-04-03T16:25:24;16.40;29.30